Grand Isle, ME

8:11 PM EDT on August 03, 2015 (GMT -0400)
N7GLR aprswxnet | | Change Station
CLOSE
Current Station
Personal Weather Station
Location: Grand Isle [Lille], ME
Elevation: 711 ft
Nearby Weather Stations

Elev 711 ft 47.24 °N, 68.10 °W | Updated 20 minutes ago

Thunderstorm
Thunderstorm
64.2 °F
Feels Like 64.2 °F
N
3.0
Wind Variable Wind from North
Gusts 3.0 mph

Today
High -- | Low -- °F
--% Chance of Precip.
Yesterday
High -- | Low -- °F
Precip. -- in
5:13 AM 8:03 PM
Waning Gibbous, 83% visible
Pressure 29.76 in
Visibility 5.0 miles
Clouds Overcast 10000 ft
Dew Point 63 °F
Humidity 97%
Rainfall 0.40 in
Snow Depth Not available.
UV 0 out of 12
Pollen 5.80 out of 12
Air Quality Not available.
Flu Activity Not available.
METAR KFVE 032353Z AUTO 18009G15KT 5SM VCTS RA BR OVC100 17/17 A2977 RMK AO2 LTG DSNT ALQDS RAB11 SLP078 P0010 60039 T01720167 10278 20172 53017

More Conditions Fewer Conditions

Pressure 29.76 in
Visibility 5.0 miles
Clouds Overcast 10000 ft
Dew Point 63 °F
Humidity 97%
Rainfall 0.40 in
Snow Depth Not available.
UV 0 out of 12
Pollen 5.80 out of 12
Air Quality Not available.
Flu Activity Not available.
METAR KFVE 032353Z AUTO 18009G15KT 5SM VCTS RA BR OVC100 17/17 A2977 RMK AO2 LTG DSNT ALQDS RAB11 SLP078 P0010 60039 T01720167 10278 20172 53017

More Conditions Fewer Conditions

10-Day Weather Forecast

×

Almanac

Astronomy

Aug. 03, 2015 Rise Set
Actual Time
Civil Twilight
Nautical Twilight
Astronomical Twilight
Moon
Length of Visible Light
Length of Day
Tomorrow will be .
, % of the Moon is Illuminated

Today's Extremes

State Highs State Lows

Community

WunderPhotos

Upload Photos

1,843,788 photos uploaded!

WunderBlogs® & News

Nearby

Air Quality

  Air Quality AQ Index Pollutant
Not available.

Snow Depth

Station Depth Elevation

Earthquake Activity

City Distance Mag. Time & Date
Minimum magnitude displayed is 2.5.

Coastal Water Temperatures

Place Temperature

Stations

Nearby Weather Stations

Station Location Temp. Windchill Dew Point Humidity Wind Precip. Elev Updated Type
                   
Severe Thunderstorm Warning
Statement as of 6:30 PM EDT on August 03, 2015

... The Severe Thunderstorm Warning for east Central Aroostook County
will expire at 630 PM EDT...

the storm which prompted the warning has moved out of the area.
Therefore the warning will be allowed to expire.

A Severe Thunderstorm Watch remains in effect until 900 PM EDT for
northern Maine.

Lat... Lon 4707 6779 4672 6779 4653 6817 4689 6845
time... Mot... loc 2228z 238deg 47kt 4709 6744


Norcross



Severe Thunderstorm Watch
Statement as of 8:03 PM EDT on August 03, 2015

Severe Thunderstorm Watch 466 remains in effect until 900 PM EDT
for the following locations


ME
. Maine counties included are

Aroostook Franklin Oxford
Penobscot Piscataquis Somerset